createdAt,value
2019-04-20T00:00:13.321Z,15.29
2019-04-20T00:01:12.629Z,15.28
2019-04-20T00:02:15.709Z,15.23
2019-04-20T00:03:11.813Z,15.31
2019-04-20T00:04:19.103Z,15.27
2019-04-20T00:05:12.821Z,15.20
2019-04-20T00:06:11.152Z,15.14
2019-04-20T00:07:10.725Z,15.14
2019-04-20T00:08:16.731Z,15.13
2019-04-20T00:09:18.276Z,15.21
2019-04-20T00:10:16.991Z,15.16
2019-04-20T00:11:19.744Z,15.13
2019-04-20T00:12:19.337Z,15.13
2019-04-20T00:13:25.551Z,15.09
2019-04-20T00:14:17.299Z,15.11
2019-04-20T00:15:11.630Z,15.17
2019-04-20T00:16:10.645Z,15.17
2019-04-20T00:17:11.628Z,15.13
2019-04-20T00:18:12.187Z,15.07
2019-04-20T00:19:10.743Z,15.10
2019-04-20T00:20:16.419Z,15.14
2019-04-20T00:21:15.642Z,15.06
2019-04-20T00:22:13.663Z,14.99
2019-04-20T00:23:13.443Z,15.02
2019-04-20T00:24:16.995Z,14.99
2019-04-20T00:25:15.942Z,15.01
2019-04-20T00:26:20.558Z,15.02
2019-04-20T00:27:32.798Z,15.09
2019-04-20T00:28:33.770Z,14.98
2019-04-20T00:29:31.000Z,15.01
2019-04-20T00:30:34.016Z,15.02
2019-04-20T00:31:26.725Z,14.98
2019-04-20T00:32:19.774Z,14.99
2019-04-20T00:33:27.305Z,14.98
2019-04-20T00:34:18.236Z,14.95
2019-04-20T00:35:12.402Z,14.95
2019-04-20T00:36:11.765Z,14.95
2019-04-20T00:37:10.892Z,14.88
2019-04-20T00:38:10.377Z,14.94
2019-04-20T00:39:13.228Z,14.88
2019-04-20T00:40:10.358Z,14.83
2019-04-20T00:41:13.464Z,14.80
2019-04-20T00:42:14.402Z,14.80
2019-04-20T00:43:13.233Z,14.84
2019-04-20T00:44:17.132Z,14.88
2019-04-20T00:45:19.194Z,14.86
2019-04-20T00:46:18.320Z,14.84
2019-04-20T00:47:20.063Z,14.84
2019-04-20T00:48:22.646Z,14.83
2019-04-20T00:49:27.727Z,14.84
2019-04-20T00:50:28.447Z,14.94
2019-04-20T00:52:27.627Z,14.78
2019-04-20T00:53:21.609Z,14.80
2019-04-20T00:54:11.516Z,14.83
2019-04-20T00:55:10.492Z,14.75
2019-04-20T00:56:10.182Z,14.78
2019-04-20T00:57:21.416Z,14.81
2019-04-20T00:58:20.215Z,14.72
2019-04-20T00:59:26.024Z,14.72
2019-04-20T01:00:25.903Z,14.77
2019-04-20T01:01:34.351Z,14.81
2019-04-20T01:02:25.811Z,14.72
2019-04-20T01:03:24.737Z,14.70
2019-04-20T01:04:34.295Z,14.77
2019-04-20T01:05:23.238Z,14.75
2019-04-20T01:06:26.949Z,14.72
2019-04-20T01:07:20.770Z,14.73
2019-04-20T01:08:11.296Z,14.68
2019-04-20T01:09:10.051Z,14.68
2019-04-20T01:10:11.015Z,14.70
2019-04-20T01:11:10.267Z,14.62
2019-04-20T01:12:16.402Z,14.61
2019-04-20T01:13:15.757Z,14.64
2019-04-20T01:14:13.923Z,14.60
2019-04-20T01:15:16.741Z,14.68
2019-04-20T01:16:25.673Z,14.61
2019-04-20T01:17:12.164Z,14.57
2019-04-20T01:18:10.780Z,14.58
2019-04-20T01:19:09.932Z,14.55
2019-04-20T01:20:09.952Z,14.61
2019-04-20T01:21:14.062Z,14.58
2019-04-20T01:22:16.545Z,14.55
2019-04-20T01:23:14.243Z,14.43
2019-04-20T01:24:19.035Z,14.55
2019-04-20T01:25:18.157Z,14.50
2019-04-20T01:26:14.480Z,14.51
2019-04-20T01:27:25.868Z,14.52
2019-04-20T01:28:27.504Z,14.54
2019-04-20T01:29:21.815Z,14.50
2019-04-20T01:30:21.039Z,14.46
2019-04-20T01:31:22.179Z,14.51
2019-04-20T01:32:20.950Z,14.45
2019-04-20T01:33:25.912Z,14.40
2019-04-20T01:34:25.204Z,14.43
2019-04-20T01:35:34.483Z,14.42
2019-04-20T01:36:34.994Z,14.43
2019-04-20T01:37:27.244Z,14.40
2019-04-20T01:38:29.601Z,14.40
2019-04-20T01:39:21.835Z,14.39
2019-04-20T01:40:11.386Z,14.33
2019-04-20T01:41:09.706Z,14.32
2019-04-20T01:42:10.839Z,14.28
2019-04-20T01:43:10.050Z,14.27
2019-04-20T01:44:09.667Z,14.32
2019-04-20T01:45:14.604Z,14.35
2019-04-20T01:46:15.677Z,14.29
2019-04-20T01:47:12.051Z,14.24
2019-04-20T01:48:13.106Z,14.20
2019-04-20T01:49:15.684Z,14.21
2019-04-20T01:50:16.756Z,14.20
2019-04-20T01:51:17.526Z,14.21
2019-04-20T01:52:19.368Z,14.21
2019-04-20T01:53:22.699Z,14.07
2019-04-20T01:54:29.751Z,14.10
2019-04-20T01:55:30.525Z,14.06
2019-04-20T01:56:24.759Z,14.04
2019-04-20T01:57:18.910Z,14.09
2019-04-20T01:58:29.988Z,14.09
2019-04-20T01:59:25.296Z,14.03
2019-04-20T02:00:17.479Z,13.99
2019-04-20T02:01:17.782Z,14.00
2019-04-20T02:02:15.223Z,13.97
2019-04-20T02:03:11.449Z,13.84
2019-04-20T02:04:17.170Z,13.89
2019-04-20T02:05:17.618Z,13.91
2019-04-20T02:06:16.147Z,13.82
2019-04-20T02:07:11.913Z,13.91
2019-04-20T02:08:15.632Z,13.84
2019-04-20T02:09:16.657Z,13.85
2019-04-20T02:10:13.108Z,13.79
2019-04-20T02:11:09.976Z,13.77
2019-04-20T02:12:15.434Z,13.75
2019-04-20T02:13:11.170Z,13.78
2019-04-20T02:14:11.972Z,13.71
2019-04-20T02:15:22.149Z,13.67
2019-04-20T02:16:21.354Z,13.73
2019-04-20T02:17:25.148Z,13.73
2019-04-20T02:18:26.125Z,13.77
2019-04-20T02:19:26.513Z,13.77
2019-04-20T02:20:29.783Z,13.75
2019-04-20T02:21:28.585Z,13.69
2019-04-20T02:22:29.873Z,13.75
2019-04-20T02:23:21.236Z,13.71
2019-04-20T02:24:12.539Z,13.75
2019-04-20T02:25:10.044Z,13.78
2019-04-20T02:26:09.291Z,13.75
2019-04-20T02:27:10.335Z,13.67
2019-04-20T02:28:30.269Z,13.77
2019-04-20T02:29:36.118Z,13.70
2019-04-20T02:32:36.605Z,13.71
2019-04-20T02:33:47.549Z,13.66
2019-04-20T02:35:42.692Z,13.67
2019-04-20T02:36:51.187Z,13.63
2019-04-20T02:39:00.495Z,13.64
2019-04-20T02:39:46.807Z,13.62
2019-04-20T02:40:47.503Z,13.57
2019-04-20T02:41:44.740Z,13.59
2019-04-20T02:44:11.717Z,13.51
2019-04-20T02:45:52.976Z,13.63
2019-04-20T02:48:39.865Z,13.59
2019-04-20T02:49:45.001Z,13.48
2019-04-20T02:50:44.314Z,13.57
2019-04-20T02:52:51.867Z,13.55
2019-04-20T02:53:51.341Z,13.51
2019-04-20T02:55:41.966Z,13.57
2019-04-20T02:56:51.678Z,13.45
2019-04-20T02:57:47.248Z,13.54
2019-04-20T02:58:47.315Z,13.51
2019-04-20T03:00:35.132Z,13.54
2019-04-20T03:01:30.949Z,13.52
2019-04-20T03:02:23.660Z,13.39
2019-04-20T03:03:21.702Z,13.52
2019-04-20T03:04:20.360Z,13.44
2019-04-20T03:05:25.725Z,13.44
2019-04-20T03:06:23.009Z,13.48
2019-04-20T03:07:26.732Z,13.44
2019-04-20T03:08:26.276Z,13.42
2019-04-20T03:09:32.439Z,13.38
2019-04-20T03:10:38.987Z,13.32
2019-04-20T03:11:42.594Z,13.39
2019-04-20T03:12:34.487Z,13.36
2019-04-20T03:13:34.912Z,13.32
2019-04-20T03:14:26.607Z,13.38
2019-04-20T03:15:32.857Z,13.20
2019-04-20T03:16:30.654Z,13.25
2019-04-20T03:17:32.729Z,13.25
2019-04-20T03:18:32.044Z,13.23
2019-04-20T03:19:25.109Z,13.23
2019-04-20T03:20:27.082Z,13.22
2019-04-20T03:21:34.541Z,13.19
2019-04-20T03:22:48.350Z,13.14
2019-04-20T03:23:37.221Z,13.12
2019-04-20T03:24:39.073Z,13.14
2019-04-20T03:25:29.794Z,13.11
2019-04-20T03:26:31.306Z,13.00
2019-04-20T03:27:25.399Z,12.97
2019-04-20T03:28:32.890Z,12.96
2019-04-20T03:29:24.105Z,13.03
2019-04-20T03:31:16.340Z,12.92
2019-04-20T03:32:01.189Z,12.78
2019-04-20T03:33:58.395Z,12.85
2019-04-20T03:35:35.161Z,12.74
2019-04-20T03:36:35.164Z,12.71
2019-04-20T03:37:33.344Z,12.74
2019-04-20T03:38:29.861Z,12.65
2019-04-20T03:39:28.877Z,12.60
2019-04-20T03:40:24.355Z,12.65
2019-04-20T03:41:19.568Z,12.57
2019-04-20T03:42:10.781Z,12.54
2019-04-20T03:43:09.759Z,12.54
2019-04-20T03:44:12.582Z,12.52
2019-04-20T03:45:14.143Z,12.47
2019-04-20T03:46:12.838Z,12.47
2019-04-20T03:47:13.674Z,12.47
2019-04-20T03:48:29.305Z,12.49
2019-04-20T03:49:27.839Z,12.46
2019-04-20T03:50:33.231Z,12.46
2019-04-20T03:51:34.411Z,12.41
2019-04-20T03:52:27.663Z,12.31
2019-04-20T03:53:27.802Z,12.20
2019-04-20T03:54:24.592Z,12.27
2019-04-20T03:55:25.887Z,12.21
2019-04-20T03:56:27.970Z,12.21
2019-04-20T03:57:34.387Z,12.20
2019-04-20T03:58:32.121Z,12.20
2019-04-20T03:59:27.420Z,12.23
2019-04-20T04:00:26.315Z,12.19
2019-04-20T04:01:44.499Z,12.14
2019-04-20T04:02:37.779Z,12.16
2019-04-20T04:03:34.979Z,12.17
2019-04-20T04:04:27.189Z,12.14
2019-04-20T04:05:28.852Z,12.19
2019-04-20T04:06:17.822Z,12.14
2019-04-20T04:07:19.458Z,12.10
2019-04-20T04:08:17.003Z,12.14
2019-04-20T04:09:20.195Z,12.09
2019-04-20T04:10:23.579Z,12.09
2019-04-20T04:11:26.086Z,12.05
2019-04-20T04:12:21.537Z,12.05
2019-04-20T04:13:09.566Z,12.07
2019-04-20T04:14:09.327Z,12.02
2019-04-20T04:15:08.519Z,12.02
2019-04-20T04:16:11.363Z,11.95
2019-04-20T04:17:13.330Z,11.98
2019-04-20T04:18:15.855Z,11.96
2019-04-20T04:19:16.182Z,11.94
2019-04-20T04:20:14.487Z,11.98
2019-04-20T04:21:16.166Z,11.80
2019-04-20T04:22:21.108Z,11.76
2019-04-20T04:23:24.926Z,11.88
2019-04-20T04:24:19.953Z,11.82
2019-04-20T04:25:22.190Z,11.70
2019-04-20T04:26:28.253Z,11.69
2019-04-20T04:27:28.156Z,11.76
2019-04-20T04:28:27.322Z,11.75
2019-04-20T04:29:34.569Z,11.72
2019-04-20T04:30:21.842Z,11.67
2019-04-20T04:31:26.295Z,11.70
2019-04-20T04:32:46.897Z,11.60
2019-04-20T04:33:45.802Z,11.62
2019-04-20T04:34:30.720Z,11.54
2019-04-20T04:35:20.139Z,11.58
2019-04-20T04:36:21.182Z,11.52
2019-04-20T04:37:26.943Z,11.58
2019-04-20T04:38:32.755Z,11.54
2019-04-20T04:39:33.866Z,11.54
2019-04-20T04:40:31.650Z,11.55
2019-04-20T04:41:27.074Z,11.60
2019-04-20T04:42:28.159Z,11.57
2019-04-20T04:43:25.782Z,11.55
2019-04-20T04:44:24.261Z,11.47
2019-04-20T04:45:12.852Z,11.49
2019-04-20T04:46:08.643Z,11.54
2019-04-20T04:47:10.435Z,11.55
2019-04-20T04:48:14.812Z,11.46
2019-04-20T04:49:18.347Z,11.57
2019-04-20T04:50:14.776Z,11.58
2019-04-20T04:51:15.484Z,11.52
2019-04-20T04:52:14.418Z,11.57
2019-04-20T04:53:17.187Z,11.60
2019-04-20T04:54:16.292Z,11.57
2019-04-20T04:55:22.188Z,11.55
2019-04-20T04:56:14.402Z,11.58
2019-04-20T04:57:09.461Z,11.67
2019-04-20T04:58:08.534Z,11.65
2019-04-20T04:59:08.614Z,11.64
2019-04-20T05:00:11.131Z,11.75
2019-04-20T05:01:14.586Z,11.64
2019-04-20T05:02:09.700Z,11.72
2019-04-20T05:03:23.377Z,11.76
2019-04-20T05:04:25.123Z,11.73
2019-04-20T05:05:31.411Z,11.80
2019-04-20T05:06:24.528Z,11.82
2019-04-20T05:07:21.253Z,11.88
2019-04-20T05:08:18.073Z,11.85
2019-04-20T05:09:11.898Z,11.94
2019-04-20T05:10:09.710Z,11.91
2019-04-20T05:11:07.353Z,11.95
2019-04-20T05:12:15.236Z,12.01
2019-04-20T05:13:09.174Z,12.02
2019-04-20T05:14:10.994Z,12.09
2019-04-20T05:15:16.218Z,12.17
2019-04-20T05:16:26.031Z,12.16
2019-04-20T05:17:29.178Z,12.16
2019-04-20T05:18:34.436Z,12.20
2019-04-20T05:19:29.577Z,12.21
2019-04-20T05:20:23.228Z,12.23
2019-04-20T05:21:25.817Z,12.29
2019-04-20T05:22:31.069Z,12.35
2019-04-20T05:23:21.132Z,12.42
2019-04-20T05:24:26.920Z,12.39
2019-04-20T05:25:26.656Z,12.46
2019-04-20T05:26:30.972Z,12.49
2019-04-20T05:27:30.130Z,12.46
2019-04-20T05:28:20.235Z,12.54
2019-04-20T05:29:15.439Z,12.65
2019-04-20T05:30:08.139Z,12.68
2019-04-20T05:31:09.691Z,12.65
2019-04-20T05:32:13.233Z,12.77
2019-04-20T05:33:16.692Z,12.75
2019-04-20T05:34:30.559Z,12.79
2019-04-20T05:35:39.148Z,12.77
2019-04-20T05:36:29.594Z,12.79
2019-04-20T05:37:33.076Z,12.95
2019-04-20T05:38:37.173Z,13.00
2019-04-20T05:39:32.676Z,12.96
2019-04-20T05:40:26.239Z,12.96
2019-04-20T05:41:26.813Z,13.04
2019-04-20T05:42:32.151Z,13.12
2019-04-20T05:43:28.982Z,13.23
2019-04-20T05:44:20.997Z,13.22
2019-04-20T05:45:24.920Z,13.25
2019-04-20T05:46:26.185Z,13.28
2019-04-20T05:47:29.101Z,13.39
2019-04-20T05:48:20.598Z,13.39
2019-04-20T05:49:27.168Z,13.54
2019-04-20T05:50:27.679Z,13.52
2019-04-20T05:51:31.598Z,13.49
2019-04-20T05:52:35.129Z,13.66
2019-04-20T05:53:37.049Z,13.70
2019-04-20T05:54:37.470Z,13.78
2019-04-20T05:55:31.550Z,13.87
2019-04-20T05:56:30.791Z,13.87
2019-04-20T05:57:30.109Z,14.04
2019-04-20T05:58:26.198Z,13.96
2019-04-20T05:59:26.972Z,14.09
2019-04-20T06:00:33.863Z,14.17
2019-04-20T06:01:31.847Z,14.21
2019-04-20T06:02:29.375Z,14.21
2019-04-20T06:03:28.838Z,14.28
2019-04-20T06:04:41.317Z,14.33
2019-04-20T06:05:29.068Z,14.33
2019-04-20T06:06:30.606Z,14.43
2019-04-20T06:07:29.702Z,14.45
2019-04-20T06:08:43.837Z,14.52
2019-04-20T06:09:28.209Z,14.55
2019-04-20T06:10:34.563Z,14.60
2019-04-20T06:11:29.325Z,14.70
2019-04-20T06:12:33.081Z,14.69
2019-04-20T06:13:24.739Z,14.80
2019-04-20T06:14:15.226Z,14.84
2019-04-20T06:15:22.306Z,14.83
2019-04-20T06:16:25.203Z,14.99
2019-04-20T06:17:25.177Z,15.03
2019-04-20T06:18:24.216Z,15.09
2019-04-20T06:19:39.651Z,15.14
2019-04-20T06:20:33.384Z,15.25
2019-04-20T06:21:31.076Z,15.36
2019-04-20T06:22:41.756Z,15.39
2019-04-20T06:23:34.300Z,15.47
2019-04-20T06:24:39.958Z,15.47
2019-04-20T06:26:46.603Z,15.51
2019-04-20T06:27:29.985Z,15.59
2019-04-20T06:28:25.879Z,15.57
2019-04-20T06:29:22.151Z,15.72
2019-04-20T06:30:26.312Z,15.75
2019-04-20T06:31:40.943Z,15.82
2019-04-20T06:32:33.648Z,15.87
2019-04-20T06:33:45.054Z,15.94
2019-04-20T06:35:50.219Z,16.04
2019-04-20T06:36:32.163Z,16.09
2019-04-20T06:37:29.729Z,16.23
2019-04-20T06:38:52.308Z,16.24
2019-04-20T06:40:46.900Z,16.25
2019-04-20T06:41:45.276Z,16.34
2019-04-20T06:42:21.535Z,16.38
2019-04-20T06:43:31.492Z,16.41
2019-04-20T06:44:50.516Z,16.53
2019-04-20T06:45:36.416Z,16.58
2019-04-20T06:46:29.307Z,16.63
2019-04-20T06:47:31.052Z,16.75
2019-04-20T06:48:34.900Z,16.73
2019-04-20T06:50:22.660Z,16.88
2019-04-20T06:51:29.805Z,16.93
2019-04-20T06:52:27.616Z,17.08
2019-04-20T06:53:38.983Z,17.03
2019-04-20T06:54:17.328Z,17.08
2019-04-20T06:55:28.853Z,17.12
2019-04-20T06:56:31.141Z,17.12
2019-04-20T06:57:31.067Z,17.18
2019-04-20T06:58:39.024Z,17.23
2019-04-20T06:59:32.985Z,17.36
2019-04-20T07:00:23.176Z,17.43
2019-04-20T07:01:37.377Z,17.43
2019-04-20T07:02:44.386Z,17.55
2019-04-20T07:03:44.688Z,17.56
2019-04-20T07:04:43.263Z,17.64
2019-04-20T07:05:28.648Z,17.66
2019-04-20T07:06:43.551Z,17.66
2019-04-20T07:08:41.118Z,17.86
2019-04-20T07:09:42.269Z,17.82
2019-04-20T07:10:34.399Z,17.89
2019-04-20T07:11:30.780Z,17.99
2019-04-20T07:12:27.202Z,17.99
2019-04-20T07:13:17.724Z,17.96
2019-04-20T07:14:19.131Z,18.12
2019-04-20T07:15:22.845Z,18.15
2019-04-20T07:16:30.592Z,18.27
2019-04-20T07:18:29.840Z,18.35
2019-04-20T07:19:22.641Z,18.47
2019-04-20T07:20:27.851Z,18.45
2019-04-20T07:21:43.970Z,18.48
2019-04-20T07:24:38.475Z,18.75
2019-04-20T07:25:34.250Z,18.73
2019-04-20T07:26:29.165Z,18.88
2019-04-20T07:27:30.755Z,19.04
2019-04-20T07:28:35.425Z,19.08
2019-04-20T07:29:35.372Z,19.10
2019-04-20T07:30:21.546Z,19.25
2019-04-20T07:31:24.246Z,19.28
2019-04-20T07:32:17.909Z,19.36
2019-04-20T07:33:26.665Z,19.37
2019-04-20T07:34:26.573Z,19.46
2019-04-20T07:35:24.801Z,19.51
2019-04-20T07:36:34.878Z,19.56
2019-04-20T07:39:28.074Z,19.68
2019-04-20T07:40:24.476Z,19.77
2019-04-20T07:41:33.155Z,19.84
2019-04-20T07:42:29.413Z,19.91
2019-04-20T07:43:28.087Z,19.95
2019-04-20T07:44:37.627Z,19.91
2019-04-20T07:46:40.916Z,20.11
2019-04-20T07:47:34.417Z,20.13
2019-04-20T07:48:26.016Z,20.20
2019-04-20T07:49:27.421Z,20.18
2019-04-20T07:50:21.475Z,20.31
2019-04-20T07:51:14.486Z,20.36
2019-04-20T07:52:06.594Z,20.42
2019-04-20T07:53:20.470Z,20.54
2019-04-20T07:54:40.209Z,20.58
2019-04-20T07:56:30.440Z,20.62
2019-04-20T07:57:24.659Z,20.73
2019-04-20T07:58:18.140Z,20.80
2019-04-20T07:59:19.095Z,20.88
2019-04-20T08:00:38.333Z,20.85
2019-04-20T08:01:39.098Z,20.92
2019-04-20T08:03:33.799Z,21.03
2019-04-20T08:04:22.727Z,21.12
2019-04-20T08:05:19.593Z,21.19
2019-04-20T08:06:14.289Z,21.17
2019-04-20T08:07:09.595Z,21.35
2019-04-20T08:08:27.152Z,21.34
2019-04-20T08:09:19.560Z,21.37
2019-04-20T08:10:11.135Z,21.37
2019-04-20T08:11:23.193Z,21.42
2019-04-20T08:12:36.411Z,21.42
2019-04-20T08:13:35.320Z,21.52
2019-04-20T08:14:31.617Z,21.56
2019-04-20T08:15:38.020Z,21.58
2019-04-20T08:16:40.636Z,21.72
2019-04-20T08:17:33.602Z,21.74
2019-04-20T08:18:32.309Z,21.80
2019-04-20T08:19:24.687Z,21.82
2019-04-20T08:20:27.898Z,21.82
2019-04-20T08:21:28.733Z,21.80
2019-04-20T08:22:28.309Z,21.88
2019-04-20T08:23:33.663Z,21.96
2019-04-20T08:24:21.462Z,21.96
2019-04-20T08:25:22.491Z,21.99
2019-04-20T08:26:15.747Z,22.03
2019-04-20T08:27:09.941Z,22.10
2019-04-20T08:28:13.673Z,22.09
2019-04-20T08:29:18.847Z,22.21
2019-04-20T08:30:28.142Z,22.18
2019-04-20T08:31:22.889Z,22.37
2019-04-20T08:32:24.286Z,22.30
2019-04-20T08:33:28.833Z,22.35
2019-04-20T08:34:31.275Z,22.28
2019-04-20T08:35:31.952Z,22.47
2019-04-20T08:36:31.559Z,22.46
2019-04-20T08:37:26.616Z,22.46
2019-04-20T08:39:37.182Z,22.51
2019-04-20T08:40:25.462Z,22.54
2019-04-20T08:41:23.249Z,22.55
2019-04-20T08:42:28.673Z,22.68
2019-04-20T08:43:38.319Z,22.77
2019-04-20T08:44:53.776Z,22.80
2019-04-20T08:45:32.793Z,22.80
2019-04-20T08:46:26.823Z,22.90
2019-04-20T08:48:28.786Z,22.86
2019-04-20T08:49:31.008Z,22.88
2019-04-20T08:50:43.990Z,23.01
2019-04-20T08:51:25.952Z,22.95
2019-04-20T08:52:46.839Z,23.02
2019-04-20T08:53:33.518Z,23.13
2019-04-20T08:54:24.422Z,23.09
2019-04-20T08:55:26.659Z,23.07
2019-04-20T08:56:18.722Z,23.10
2019-04-20T08:57:06.987Z,23.23
2019-04-20T08:58:04.850Z,23.12
2019-04-20T08:59:04.867Z,23.25
2019-04-20T09:00:06.865Z,23.31
2019-04-20T09:01:08.308Z,23.40
2019-04-20T09:02:11.726Z,23.42
2019-04-20T09:03:15.395Z,23.46
2019-04-20T09:04:13.280Z,23.60
2019-04-20T09:05:14.659Z,23.54
2019-04-20T09:06:19.398Z,23.53
2019-04-20T09:07:13.257Z,23.58
2019-04-20T09:08:13.519Z,23.53
2019-04-20T09:09:34.790Z,23.53
2019-04-20T09:10:30.813Z,23.65
2019-04-20T09:11:20.656Z,23.70
2019-04-20T09:12:21.150Z,23.75
2019-04-20T09:13:16.040Z,23.84
2019-04-20T09:14:07.692Z,23.95
2019-04-20T09:15:05.887Z,24.02
2019-04-20T09:16:04.726Z,24.10
2019-04-20T09:17:08.085Z,24.03
2019-04-20T09:18:22.752Z,24.08
2019-04-20T09:19:12.324Z,24.09
2019-04-20T09:20:12.598Z,24.24
2019-04-20T09:21:13.713Z,24.09
2019-04-20T09:22:16.181Z,24.21
2019-04-20T09:23:21.562Z,24.30
2019-04-20T09:24:33.028Z,24.21
2019-04-20T09:25:42.536Z,24.28
2019-04-20T09:26:25.178Z,24.31
2019-04-20T09:27:18.205Z,24.28
2019-04-20T09:28:16.120Z,24.45
2019-04-20T09:29:18.206Z,24.50
2019-04-20T09:30:21.373Z,24.57
2019-04-20T09:31:21.172Z,24.55
2019-04-20T09:32:23.551Z,24.62
2019-04-20T09:33:23.511Z,24.67
2019-04-20T09:34:20.385Z,24.58
2019-04-20T09:35:24.888Z,24.62
2019-04-20T09:36:17.903Z,24.71
2019-04-20T09:37:24.822Z,24.69
2019-04-20T09:38:21.676Z,24.76
2019-04-20T09:39:15.002Z,24.80
2019-04-20T09:40:20.214Z,24.84
2019-04-20T09:41:30.388Z,24.93
2019-04-20T09:42:05.422Z,25.03
2019-04-20T09:43:04.610Z,25.13
2019-04-20T09:44:04.669Z,25.10
2019-04-20T09:45:06.248Z,25.13
2019-04-20T09:46:07.198Z,25.10
2019-04-20T09:47:05.577Z,25.13
2019-04-20T09:48:11.574Z,25.24
2019-04-20T09:49:15.727Z,25.35
2019-04-20T09:50:24.760Z,25.38
2019-04-20T09:51:24.758Z,25.39
2019-04-20T09:52:18.496Z,25.45
2019-04-20T09:53:21.252Z,25.47
2019-04-20T09:54:27.036Z,25.51
2019-04-20T09:55:18.404Z,25.47
2019-04-20T09:56:19.870Z,25.50
2019-04-20T09:57:26.783Z,25.52
2019-04-20T09:58:18.992Z,25.47
2019-04-20T09:59:26.901Z,25.46
2019-04-20T10:00:18.307Z,25.55
2019-04-20T10:01:15.716Z,25.60
2019-04-20T10:02:10.264Z,25.61
2019-04-20T10:03:06.567Z,25.61
2019-04-20T10:04:05.450Z,25.61
2019-04-20T10:05:05.297Z,25.69
2019-04-20T10:06:05.411Z,25.73
2019-04-20T10:07:09.293Z,25.64
2019-04-20T10:08:08.475Z,25.67
2019-04-20T10:09:05.118Z,25.72
2019-04-20T10:10:15.859Z,25.77
2019-04-20T10:11:05.673Z,25.80
2019-04-20T10:12:04.056Z,25.77
2019-04-20T10:13:05.681Z,25.79
2019-04-20T10:14:04.067Z,25.80
2019-04-20T10:15:12.207Z,25.90
2019-04-20T10:16:05.875Z,25.83
2019-04-20T10:17:05.559Z,25.92
2019-04-20T10:18:04.001Z,26.01
2019-04-20T10:19:04.917Z,25.98
2019-04-20T10:20:10.843Z,26.02
2019-04-20T10:21:05.485Z,26.17
2019-04-20T10:22:04.655Z,26.15
2019-04-20T10:23:04.653Z,26.12
2019-04-20T10:24:03.920Z,26.13
2019-04-20T10:25:04.576Z,26.20
2019-04-20T10:26:04.697Z,26.23
2019-04-20T10:27:03.892Z,26.26
2019-04-20T10:28:03.890Z,26.20
2019-04-20T10:29:03.860Z,26.28
2019-04-20T10:30:05.953Z,26.28
2019-04-20T10:31:04.353Z,26.28
2019-04-20T10:32:07.906Z,26.36
2019-04-20T10:33:05.747Z,26.36
2019-04-20T10:34:03.969Z,26.44
2019-04-20T10:35:04.494Z,26.47
2019-04-20T10:36:03.794Z,26.54
2019-04-20T10:37:03.937Z,26.62
2019-04-20T10:38:05.309Z,26.63
2019-04-20T10:39:04.469Z,26.52
2019-04-20T10:40:04.810Z,26.55
2019-04-20T10:41:11.275Z,26.52
2019-04-20T10:42:05.919Z,26.60
2019-04-20T10:43:04.563Z,26.52
2019-04-20T10:44:04.868Z,26.63
2019-04-20T10:45:04.688Z,26.66
2019-04-20T10:46:04.711Z,26.66
2019-04-20T10:47:04.945Z,26.67
2019-04-20T10:48:03.662Z,26.63
2019-04-20T10:49:04.739Z,26.75
2019-04-20T10:50:04.935Z,26.82
2019-04-20T10:51:03.649Z,26.81
2019-04-20T10:52:03.611Z,26.87
2019-04-20T10:53:03.728Z,26.82
2019-04-20T10:54:04.568Z,26.82
2019-04-20T10:55:03.583Z,26.92
2019-04-20T10:56:03.575Z,26.85
2019-04-20T10:57:03.569Z,26.94
2019-04-20T10:58:03.786Z,26.88
2019-04-20T10:59:03.575Z,26.95
2019-04-20T11:00:03.791Z,27.00
2019-04-20T11:01:03.944Z,27.02
2019-04-20T11:02:03.616Z,27.14
2019-04-20T11:03:03.839Z,27.03
2019-04-20T11:04:04.809Z,27.18
2019-04-20T11:05:04.536Z,27.12
2019-04-20T11:06:04.709Z,27.10
2019-04-20T11:07:04.756Z,27.25
2019-04-20T11:08:04.330Z,27.19
2019-04-20T11:09:04.670Z,27.21
2019-04-20T11:10:13.433Z,27.31
2019-04-20T11:11:13.044Z,27.29
2019-04-20T11:12:04.397Z,27.31
2019-04-20T11:13:03.385Z,27.24
2019-04-20T11:14:09.241Z,27.29
2019-04-20T11:15:04.394Z,27.29
2019-04-20T11:16:04.272Z,27.34
2019-04-20T11:17:04.421Z,27.28
2019-04-20T11:18:03.729Z,27.28
2019-04-20T11:19:03.380Z,27.27
2019-04-20T11:20:03.431Z,27.31
2019-04-20T11:21:03.643Z,27.27
2019-04-20T11:22:04.203Z,27.34
2019-04-20T11:23:04.395Z,27.27
2019-04-20T11:24:04.498Z,27.39
2019-04-20T11:25:04.298Z,27.39
2019-04-20T11:26:04.353Z,27.36
2019-04-20T11:27:04.435Z,27.39
2019-04-20T11:28:04.024Z,27.44
2019-04-20T11:29:04.205Z,27.43
2019-04-20T11:30:04.408Z,27.44
2019-04-20T11:31:04.072Z,27.54
2019-04-20T11:32:03.251Z,27.47
2019-04-20T11:33:04.390Z,27.51
2019-04-20T11:34:03.913Z,27.49
2019-04-20T11:35:09.056Z,27.51
2019-04-20T11:36:05.205Z,27.49
2019-04-20T11:37:03.417Z,27.55
2019-04-20T11:38:03.123Z,27.62
2019-04-20T11:39:03.116Z,27.55
2019-04-20T11:40:03.282Z,27.63
2019-04-20T11:41:11.385Z,27.63
2019-04-20T11:42:04.085Z,27.66
2019-04-20T11:43:03.891Z,27.62
2019-04-20T11:44:03.089Z,27.60
2019-04-20T11:45:03.081Z,27.57
2019-04-20T11:46:03.083Z,27.59
2019-04-20T11:47:03.041Z,27.69
2019-04-20T11:48:03.327Z,27.55
2019-04-20T11:49:03.678Z,27.60
2019-04-20T11:50:03.762Z,27.69
2019-04-20T11:51:03.516Z,27.72
2019-04-20T11:52:03.577Z,27.69
2019-04-20T11:53:03.521Z,27.79
2019-04-20T11:54:04.231Z,27.81
2019-04-20T11:55:04.311Z,27.84
2019-04-20T11:56:06.681Z,27.75
2019-04-20T11:57:03.912Z,27.77
2019-04-20T11:58:03.764Z,27.75
2019-04-20T11:59:03.069Z,27.79
2019-04-20T12:00:03.617Z,27.74
2019-04-20T12:01:10.193Z,27.75
2019-04-20T12:02:05.957Z,27.82
2019-04-20T12:03:11.113Z,27.77
2019-04-20T12:04:21.550Z,27.82
2019-04-20T12:05:12.775Z,27.72
2019-04-20T12:06:07.031Z,27.74
2019-04-20T12:07:02.809Z,27.74
2019-04-20T12:08:03.006Z,27.75
2019-04-20T12:09:03.154Z,27.81
2019-04-20T12:10:09.051Z,27.82
2019-04-20T12:11:20.455Z,27.79
2019-04-20T12:12:17.886Z,27.78
2019-04-20T12:13:03.926Z,27.82
2019-04-20T12:14:02.814Z,27.84
2019-04-20T12:15:02.736Z,27.92
2019-04-20T12:16:03.544Z,27.87
2019-04-20T12:17:03.792Z,27.82
2019-04-20T12:18:02.704Z,28.02
2019-04-20T12:19:02.712Z,27.97
2019-04-20T12:20:03.896Z,27.87
2019-04-20T12:21:03.018Z,27.87
2019-04-20T12:22:03.579Z,27.92
2019-04-20T12:23:02.654Z,27.84
2019-04-20T12:24:02.634Z,27.94
2019-04-20T12:25:02.636Z,28.04
2019-04-20T12:26:02.631Z,27.93
2019-04-20T12:27:02.929Z,27.93
2019-04-20T12:28:03.941Z,28.00
2019-04-20T12:29:03.567Z,27.97
2019-04-20T12:30:03.729Z,28.09
2019-04-20T12:31:09.840Z,28.07
2019-04-20T12:32:06.918Z,28.00
2019-04-20T12:33:03.854Z,27.94
2019-04-20T12:34:02.545Z,27.97
2019-04-20T12:35:02.670Z,27.99
2019-04-20T12:36:02.625Z,27.97
2019-04-20T12:37:02.919Z,27.96
2019-04-20T12:38:03.105Z,28.03
2019-04-20T12:39:03.422Z,28.04
2019-04-20T12:40:03.177Z,27.97
2019-04-20T12:41:04.842Z,28.07
2019-04-20T12:42:05.930Z,27.97
2019-04-20T12:43:04.649Z,28.00
2019-04-20T12:44:03.783Z,27.99
2019-04-20T12:45:03.699Z,28.06
2019-04-20T12:46:02.419Z,28.00
2019-04-20T12:47:03.626Z,27.97
2019-04-20T12:48:03.779Z,27.99
2019-04-20T12:49:02.379Z,28.00
2019-04-20T12:50:03.518Z,27.97
2019-04-20T12:51:03.640Z,28.03
2019-04-20T12:52:06.077Z,27.97
2019-04-20T12:53:02.426Z,28.04
2019-04-20T12:54:02.607Z,28.03
2019-04-20T12:55:04.573Z,28.00
2019-04-20T12:56:02.380Z,28.04
2019-04-20T12:57:02.635Z,28.07
2019-04-20T12:58:02.832Z,28.07
2019-04-20T12:59:03.250Z,28.14
2019-04-20T13:00:03.485Z,28.07
2019-04-20T13:01:02.569Z,28.11
2019-04-20T13:02:02.239Z,28.15
2019-04-20T13:03:03.314Z,28.09
2019-04-20T13:04:04.514Z,28.04
2019-04-20T13:05:03.580Z,28.07
2019-04-20T13:06:02.174Z,28.09
2019-04-20T13:07:02.197Z,28.11
2019-04-20T13:08:03.963Z,28.14
2019-04-20T13:09:02.765Z,28.14
2019-04-20T13:10:03.883Z,28.09
2019-04-20T13:11:02.556Z,28.11
2019-04-20T13:12:06.045Z,28.12
2019-04-20T13:13:03.100Z,28.11
2019-04-20T13:14:02.200Z,28.02
2019-04-20T13:15:02.416Z,27.96
2019-04-20T13:16:02.640Z,27.99
2019-04-20T13:17:02.177Z,27.99
2019-04-20T13:18:03.237Z,27.93
2019-04-20T13:19:03.397Z,27.97
2019-04-20T13:20:02.020Z,28.00
2019-04-20T13:21:03.164Z,28.02